createdAt,value
2022-08-20T00:00:29.480Z,101477.97
2022-08-20T00:02:58.767Z,101479.41
2022-08-20T00:05:30.101Z,101463.97
2022-08-20T00:07:58.800Z,101484.09
2022-08-20T00:10:27.037Z,101489.41
2022-08-20T00:12:53.695Z,101483.84
2022-08-20T00:15:26.346Z,101490.31
2022-08-20T00:17:53.100Z,101489.50
2022-08-20T00:20:23.135Z,101496.56
2022-08-20T00:22:49.859Z,101496.56
2022-08-20T00:25:17.505Z,101499.88
2022-08-20T00:27:44.055Z,101495.28
2022-08-20T00:30:14.387Z,101500.22
2022-08-20T00:32:54.569Z,101505.03
2022-08-20T00:35:25.413Z,101491.97
2022-08-20T00:37:54.606Z,101503.59
2022-08-20T00:40:35.155Z,101505.03
2022-08-20T00:43:04.353Z,101500.75
2022-08-20T00:45:33.877Z,101497.31
2022-08-20T00:48:00.607Z,101505.44
2022-08-20T00:50:35.929Z,101498.84
2022-08-20T00:53:05.565Z,101502.38
2022-08-20T00:55:32.995Z,101506.50
2022-08-20T00:58:04.169Z,101498.00
2022-08-20T01:00:38.003Z,101490.00
2022-08-20T01:03:09.759Z,101494.72
2022-08-20T01:05:38.205Z,101489.63
2022-08-20T01:08:05.053Z,101485.06
2022-08-20T01:10:35.715Z,101484.69
2022-08-20T01:13:10.997Z,101486.31
2022-08-20T01:15:43.293Z,101487.38
2022-08-20T01:18:16.471Z,101471.59
2022-08-20T01:20:46.992Z,101469.09
2022-08-20T01:23:31.270Z,101495.97
2022-08-20T01:26:11.306Z,101499.28
2022-08-20T01:28:44.127Z,101491.59
2022-08-20T01:31:13.845Z,101495.03
2022-08-20T01:33:41.453Z,101490.69
2022-08-20T01:36:11.715Z,101494.91
2022-08-20T01:38:39.716Z,101494.84
2022-08-20T01:41:28.052Z,101499.91
2022-08-20T01:43:57.129Z,101479.25
2022-08-20T01:46:29.353Z,101495.84
2022-08-20T01:48:57.411Z,101482.09
2022-08-20T01:51:30.215Z,101500.56
2022-08-20T01:53:59.707Z,101501.72
2022-08-20T01:56:30.147Z,101508.38
2022-08-20T01:58:59.328Z,101505.53
2022-08-20T02:01:30.068Z,101512.75
2022-08-20T02:03:57.321Z,101510.28
2022-08-20T02:06:25.702Z,101510.69
2022-08-20T02:08:55.215Z,101475.34
2022-08-20T02:11:22.633Z,101506.97
2022-08-20T02:13:52.740Z,101503.56
2022-08-20T02:16:29.090Z,101503.66
2022-08-20T02:18:58.824Z,101505.53
2022-08-20T02:21:31.382Z,101507.41
2022-08-20T02:23:58.764Z,101513.25
2022-08-20T02:26:26.808Z,101514.78
2022-08-20T02:28:55.590Z,101511.09
2022-08-20T02:31:23.394Z,101510.47
2022-08-20T02:34:22.579Z,101514.25
2022-08-20T02:36:37.730Z,101514.63
2022-08-20T02:39:07.385Z,101512.78
2022-08-20T02:41:35.982Z,101518.19
2022-08-20T02:44:02.729Z,101514.53
2022-08-20T02:46:29.230Z,101520.75
2022-08-20T02:48:57.011Z,101519.31
2022-08-20T02:51:30.613Z,101517.31
2022-08-20T02:53:57.213Z,101500.28
2022-08-20T02:56:23.701Z,101524.03
2022-08-20T02:58:50.105Z,101519.31
2022-08-20T03:01:18.021Z,101490.22
2022-08-20T03:03:45.257Z,101520.78
2022-08-20T03:06:13.383Z,101516.63
2022-08-20T03:08:41.292Z,101496.88
2022-08-20T03:11:07.849Z,101512.97
2022-08-20T03:13:35.342Z,101519.84
2022-08-20T03:16:02.989Z,101506.69
2022-08-20T03:18:37.507Z,101499.84
2022-08-20T03:21:06.475Z,101520.97
2022-08-20T03:23:38.118Z,101516.00
2022-08-20T03:26:09.486Z,101514.13
2022-08-20T03:28:36.154Z,101518.91
2022-08-20T03:31:03.121Z,101515.00
2022-08-20T03:33:31.524Z,101512.78
2022-08-20T03:35:58.802Z,101511.75
2022-08-20T03:38:32.992Z,101514.47
2022-08-20T03:41:01.082Z,101515.72
2022-08-20T03:43:27.582Z,101528.41
2022-08-20T03:45:54.081Z,101517.00
2022-08-20T03:48:21.644Z,101522.59
2022-08-20T03:50:50.689Z,101520.38
2022-08-20T03:53:17.969Z,101517.72
2022-08-20T03:55:54.022Z,101518.19
2022-08-20T03:58:30.093Z,101525.66
2022-08-20T04:01:02.928Z,101522.94
2022-08-20T04:03:29.500Z,101527.72
2022-08-20T04:05:56.002Z,101516.16
2022-08-20T04:08:26.795Z,101521.97
2022-08-20T04:10:54.305Z,101519.75
2022-08-20T04:13:23.649Z,101523.06
2022-08-20T04:15:50.658Z,101520.19
2022-08-20T04:18:22.944Z,101529.53
2022-08-20T04:20:51.016Z,101518.97
2022-08-20T04:23:18.027Z,101529.97
2022-08-20T04:25:45.420Z,101531.19
2022-08-20T04:28:16.983Z,101534.75
2022-08-20T04:30:47.463Z,101522.34
2022-08-20T04:33:19.675Z,101536.03
2022-08-20T04:36:02.551Z,101548.06
2022-08-20T04:38:49.642Z,101532.91
2022-08-20T04:41:22.561Z,101535.63
2022-08-20T04:43:51.098Z,101533.34
2022-08-20T04:46:17.559Z,101548.31
2022-08-20T04:48:50.460Z,101560.31
2022-08-20T04:51:18.297Z,101551.00
2022-08-20T04:53:52.145Z,101560.13
2022-08-20T04:56:23.912Z,101553.91
2022-08-20T04:58:53.096Z,101555.09
2022-08-20T05:01:19.655Z,101560.94
2022-08-20T05:03:47.835Z,101569.06
2022-08-20T05:06:16.251Z,101560.97
2022-08-20T05:08:44.061Z,101567.78
2022-08-20T05:11:32.581Z,101571.50
2022-08-20T05:14:00.349Z,101564.22
2022-08-20T05:16:26.836Z,101573.94
2022-08-20T05:18:53.256Z,101572.72
2022-08-20T05:21:20.956Z,101576.22
2022-08-20T05:23:47.773Z,101575.41
2022-08-20T05:26:15.965Z,101585.78
2022-08-20T05:28:54.263Z,101575.63
2022-08-20T05:31:32.262Z,101585.28
2022-08-20T05:34:09.388Z,101586.50
2022-08-20T05:36:39.631Z,101587.31
2022-08-20T05:39:06.192Z,101588.94
2022-08-20T05:41:32.603Z,101597.22
2022-08-20T05:44:01.269Z,101588.69
2022-08-20T05:46:31.330Z,101596.97
2022-08-20T05:48:59.592Z,101594.00
2022-08-20T05:51:27.576Z,101597.50
2022-08-20T05:53:53.963Z,101597.50
2022-08-20T05:56:26.637Z,101597.44
2022-08-20T05:58:54.226Z,101600.31
2022-08-20T06:01:20.883Z,101600.28
2022-08-20T06:04:05.871Z,101611.84
2022-08-20T06:06:44.854Z,101615.34
2022-08-20T06:09:13.614Z,101602.84
2022-08-20T06:11:40.091Z,101612.09
2022-08-20T06:14:06.489Z,101611.44
2022-08-20T06:16:33.277Z,101609.31
2022-08-20T06:18:59.999Z,101606.94
2022-08-20T06:21:29.625Z,101601.38
2022-08-20T06:23:58.548Z,101600.75
2022-08-20T06:26:30.023Z,101600.28
2022-08-20T06:28:59.149Z,101608.34
2022-08-20T06:31:27.452Z,101607.25
2022-08-20T06:33:54.253Z,101594.31
2022-08-20T06:36:20.777Z,101600.94
2022-08-20T06:38:47.211Z,101589.25
2022-08-20T06:41:14.042Z,101586.69
2022-08-20T06:43:40.722Z,101600.97
2022-08-20T06:46:07.314Z,101600.16
2022-08-20T06:48:34.009Z,101600.22
2022-08-20T06:51:01.441Z,101597.06
2022-08-20T06:53:29.077Z,101597.38
2022-08-20T06:55:58.917Z,101608.97
2022-08-20T06:58:36.627Z,101598.44
2022-08-20T07:01:10.956Z,101611.19
2022-08-20T07:03:38.891Z,101611.84
2022-08-20T07:06:05.717Z,101612.97
2022-08-20T07:08:32.611Z,101620.16
2022-08-20T07:10:59.713Z,101624.44
2022-08-20T07:13:26.598Z,101619.13
2022-08-20T07:15:54.030Z,101615.72
2022-08-20T07:18:28.266Z,101623.06
2022-08-20T07:20:57.549Z,101616.88
2022-08-20T07:23:27.572Z,101607.44
2022-08-20T07:25:55.691Z,101619.66
2022-08-20T07:28:24.670Z,101601.53
2022-08-20T07:31:13.364Z,101620.41
2022-08-20T07:33:44.317Z,101622.88
2022-08-20T07:36:12.652Z,101630.34
2022-08-20T07:38:39.191Z,101629.03
2022-08-20T07:41:09.945Z,101624.19
2022-08-20T07:43:36.488Z,101627.75
2022-08-20T07:46:08.867Z,101620.09
2022-08-20T07:48:39.966Z,101606.31
2022-08-20T07:51:08.560Z,101634.91
2022-08-20T07:53:36.982Z,101616.66
2022-08-20T07:56:06.181Z,101625.88
2022-08-20T07:58:35.798Z,101626.69
2022-08-20T08:01:02.515Z,101634.69
2022-08-20T08:03:40.492Z,101635.41
2022-08-20T08:06:18.277Z,101636.56
2022-08-20T08:09:08.056Z,101631.81
2022-08-20T08:11:38.453Z,101619.81
2022-08-20T08:14:08.207Z,101629.06
2022-08-20T08:16:36.868Z,101622.59
2022-08-20T08:19:08.907Z,101630.09
2022-08-20T08:21:35.597Z,101638.19
2022-08-20T08:24:02.634Z,101631.72
2022-08-20T08:26:29.210Z,101628.84
2022-08-20T08:28:56.185Z,101645.56
2022-08-20T08:31:22.629Z,101634.53
2022-08-20T08:33:49.018Z,101621.91
2022-08-20T08:36:16.394Z,101637.81
2022-08-20T08:38:45.231Z,101624.22
2022-08-20T08:41:22.109Z,101632.91
2022-08-20T08:43:53.398Z,101626.06
2022-08-20T08:46:25.729Z,101611.44
2022-08-20T08:48:57.445Z,101628.22
2022-08-20T08:51:38.219Z,101621.47
2022-08-20T08:54:07.218Z,101620.31
2022-08-20T08:56:34.297Z,101635.19
2022-08-20T08:59:04.493Z,101638.16
2022-08-20T09:01:54.324Z,101627.69
2022-08-20T09:04:22.758Z,101636.81
2022-08-20T09:06:53.483Z,101619.34
2022-08-20T09:09:27.640Z,101636.75
2022-08-20T09:11:57.387Z,101642.06
2022-08-20T09:14:26.777Z,101643.88
2022-08-20T09:16:53.733Z,101636.81
2022-08-20T09:19:21.354Z,101634.78
2022-08-20T09:21:47.948Z,101635.09
2022-08-20T09:24:14.414Z,101632.00
2022-08-20T09:26:41.259Z,101645.97
2022-08-20T09:29:07.951Z,101622.91
2022-08-20T09:31:35.638Z,101637.47
2022-08-20T09:34:04.792Z,101639.03
2022-08-20T09:36:32.515Z,101625.06
2022-08-20T09:39:00.580Z,101627.22
2022-08-20T09:41:29.208Z,101641.50
2022-08-20T09:43:55.700Z,101632.22
2022-08-20T09:46:27.028Z,101638.75
2022-08-20T09:48:54.132Z,101627.94
2022-08-20T09:51:20.675Z,101622.63
2022-08-20T09:53:47.411Z,101625.38
2022-08-20T09:56:14.036Z,101615.66
2022-08-20T09:58:53.339Z,101613.00
2022-08-20T10:01:22.158Z,101602.69
2022-08-20T10:03:49.662Z,101598.63
2022-08-20T10:06:19.550Z,101598.06
2022-08-20T10:08:46.072Z,101602.72
2022-08-20T10:11:12.577Z,101603.28
2022-08-20T10:13:39.030Z,101604.69
2022-08-20T10:16:05.861Z,101598.19
2022-08-20T10:18:32.369Z,101610.44
2022-08-20T10:20:58.880Z,101601.13
2022-08-20T10:23:25.342Z,101599.22
2022-08-20T10:25:51.745Z,101605.84
2022-08-20T10:28:18.132Z,101604.78
2022-08-20T10:30:45.183Z,101611.97
2022-08-20T10:33:11.608Z,101605.75
2022-08-20T10:35:38.043Z,101599.22
2022-08-20T10:38:04.553Z,101611.19
2022-08-20T10:40:30.987Z,101601.00
2022-08-20T10:42:57.417Z,101615.47
2022-08-20T10:45:25.765Z,101600.94
2022-08-20T10:47:52.289Z,101605.53
2022-08-20T10:50:20.236Z,101606.47
2022-08-20T10:52:47.378Z,101589.03
2022-08-20T10:55:14.305Z,101598.34
2022-08-20T10:57:43.585Z,101605.72
2022-08-20T11:00:14.065Z,101609.56
2022-08-20T11:02:40.604Z,101576.53
2022-08-20T11:05:07.863Z,101602.28
2022-08-20T11:07:55.439Z,101605.88
2022-08-20T11:10:27.173Z,101591.88
2022-08-20T11:12:53.632Z,101609.69
2022-08-20T11:15:20.033Z,101599.03
2022-08-20T11:17:46.807Z,101596.63
2022-08-20T11:20:15.681Z,101608.66
2022-08-20T11:22:42.177Z,101596.91
2022-08-20T11:25:09.428Z,101587.63
2022-08-20T11:27:46.909Z,101583.53
2022-08-20T11:30:24.112Z,101572.84
2022-08-20T11:32:50.658Z,101611.38
2022-08-20T11:35:41.559Z,101608.88
2022-08-20T11:38:05.295Z,101588.84
2022-08-20T11:40:31.877Z,101607.41
2022-08-20T11:43:14.276Z,101603.31
2022-08-20T11:45:41.848Z,101623.56
2022-08-20T11:48:08.230Z,101610.41
2022-08-20T11:50:34.752Z,101610.38
2022-08-20T11:53:01.256Z,101604.66
2022-08-20T11:55:30.304Z,101603.03
2022-08-20T11:57:59.889Z,101602.56
2022-08-20T12:00:31.733Z,101602.09
2022-08-20T12:03:00.526Z,101596.63
2022-08-20T12:05:29.396Z,101596.25
2022-08-20T12:07:56.158Z,101616.69
2022-08-20T12:10:24.406Z,101598.75
2022-08-20T12:12:50.810Z,101604.25
2022-08-20T12:15:17.402Z,101610.78
2022-08-20T12:17:43.938Z,101608.34
2022-08-20T12:20:13.198Z,101602.63
2022-08-20T12:22:39.969Z,101603.47
2022-08-20T12:25:08.016Z,101590.88
2022-08-20T12:27:35.962Z,101612.19
2022-08-20T12:30:10.429Z,101615.22
2022-08-20T12:32:37.766Z,101619.84
2022-08-20T12:35:06.700Z,101630.16
2022-08-20T12:37:33.484Z,101630.63
2022-08-20T12:40:01.438Z,101647.50
2022-08-20T12:42:30.325Z,101640.84
2022-08-20T12:44:59.193Z,101639.16
2022-08-20T12:47:28.768Z,101644.56
2022-08-20T12:50:01.398Z,101635.22
2022-08-20T12:52:29.935Z,101636.91
2022-08-20T12:54:57.622Z,101645.25
2022-08-20T12:57:46.414Z,101652.19
2022-08-20T13:00:15.138Z,101639.94
2022-08-20T13:02:42.330Z,101646.72
2022-08-20T13:05:10.979Z,101642.63
2022-08-20T13:07:39.073Z,101659.22
2022-08-20T13:10:07.952Z,101646.38
2022-08-20T13:12:34.615Z,101656.47
2022-08-20T13:15:01.031Z,101652.69
2022-08-20T13:17:38.597Z,101654.56
2022-08-20T13:20:16.575Z,101656.16
2022-08-20T13:22:43.111Z,101646.03
2022-08-20T13:25:11.691Z,101658.06
2022-08-20T13:27:40.287Z,101646.78
2022-08-20T13:30:08.481Z,101649.47
2022-08-20T13:32:35.012Z,101658.19
2022-08-20T13:35:01.644Z,101652.13
2022-08-20T13:37:29.051Z,101651.88
2022-08-20T13:39:58.007Z,101655.41
2022-08-20T13:42:25.334Z,101652.91
2022-08-20T13:44:51.828Z,101654.88
2022-08-20T13:47:27.442Z,101661.13
2022-08-20T13:50:00.299Z,101666.81
2022-08-20T13:52:27.493Z,101664.03
2022-08-20T13:54:54.005Z,101663.47
2022-08-20T13:57:23.230Z,101659.53
2022-08-20T13:59:51.872Z,101661.72
2022-08-20T14:02:18.870Z,101657.38
2022-08-20T14:04:47.330Z,101660.09
2022-08-20T14:07:23.764Z,101648.63
2022-08-20T14:09:54.127Z,101649.13
2022-08-20T14:12:23.135Z,101649.66
2022-08-20T14:14:50.856Z,101657.81
2022-08-20T14:17:27.721Z,101651.84
2022-08-20T14:20:01.348Z,101635.44
2022-08-20T14:22:28.884Z,101655.41
2022-08-20T14:24:56.412Z,101653.25
2022-08-20T14:27:27.739Z,101651.91
2022-08-20T14:29:57.361Z,101654.28
2022-08-20T14:32:23.761Z,101654.28
2022-08-20T14:34:50.264Z,101658.44
2022-08-20T14:37:19.290Z,101649.47
2022-08-20T14:39:48.718Z,101652.47
2022-08-20T14:42:15.831Z,101647.53
2022-08-20T14:44:42.808Z,101646.13
2022-08-20T14:47:14.028Z,101646.03
2022-08-20T14:49:40.559Z,101646.03
2022-08-20T14:52:07.245Z,101645.25
2022-08-20T14:54:34.753Z,101654.25
2022-08-20T14:57:02.010Z,101649.50
2022-08-20T14:59:29.114Z,101639.13
2022-08-20T15:01:55.863Z,101632.56
2022-08-20T15:04:23.881Z,101641.50
2022-08-20T15:06:54.593Z,101639.56
2022-08-20T15:09:21.267Z,101632.22
2022-08-20T15:11:47.728Z,101635.75
2022-08-20T15:14:15.045Z,101637.94
2022-08-20T15:16:44.911Z,101631.97
2022-08-20T15:19:11.490Z,101641.81
2022-08-20T15:21:44.981Z,101638.44
2022-08-20T15:24:15.681Z,101639.56
2022-08-20T15:26:46.151Z,101637.19
2022-08-20T15:29:13.222Z,101637.19
2022-08-20T15:31:49.538Z,101638.00
2022-08-20T15:34:17.750Z,101636.59
2022-08-20T15:36:44.940Z,101633.19
2022-08-20T15:39:11.397Z,101643.19
2022-08-20T15:41:37.801Z,101635.66
2022-08-20T15:44:04.398Z,101660.44
2022-08-20T15:46:32.796Z,101640.28
2022-08-20T15:49:04.571Z,101638.06
2022-08-20T15:51:43.255Z,101630.22
2022-08-20T15:54:23.353Z,101636.84
2022-08-20T15:57:22.195Z,101641.94
2022-08-20T16:00:14.097Z,101643.63
2022-08-20T16:03:06.192Z,101656.72
2022-08-20T16:05:49.798Z,101640.22
2022-08-20T16:08:31.356Z,101644.63
2022-08-20T16:11:03.813Z,101642.91
2022-08-20T16:13:37.491Z,101631.00
2022-08-20T16:16:08.446Z,101613.38
2022-08-20T16:18:36.774Z,101637.66
2022-08-20T16:21:09.520Z,101639.34
2022-08-20T16:23:38.738Z,101639.41
2022-08-20T16:26:28.097Z,101634.69
2022-08-20T16:29:00.617Z,101633.13
2022-08-20T16:31:40.859Z,101639.88
2022-08-20T16:34:32.917Z,101645.81
2022-08-20T16:37:30.199Z,101620.06
2022-08-20T16:40:18.920Z,101639.16
2022-08-20T16:42:48.191Z,101645.81
2022-08-20T16:45:25.761Z,101640.81
2022-08-20T16:47:57.107Z,101650.25
2022-08-20T16:50:28.826Z,101649.84
2022-08-20T16:52:55.514Z,101649.06
2022-08-20T16:55:24.282Z,101648.22
2022-08-20T16:57:52.807Z,101650.63
2022-08-20T17:00:35.367Z,101648.16
2022-08-20T17:03:05.851Z,101636.25
2022-08-20T17:05:38.362Z,101650.31
2022-08-20T17:08:08.610Z,101647.38
2022-08-20T17:10:52.286Z,101646.13
2022-08-20T17:13:28.051Z,101647.84
2022-08-20T17:16:01.680Z,101650.50
2022-08-20T17:18:34.830Z,101633.19
2022-08-20T17:23:55.610Z,101641.47
2022-08-20T17:26:36.427Z,101639.06
2022-08-20T17:29:24.775Z,101640.97
2022-08-20T17:31:57.630Z,101631.31
2022-08-20T17:34:32.081Z,101632.16
2022-08-20T17:37:09.691Z,101642.38
2022-08-20T17:39:46.182Z,101633.97
2022-08-20T17:42:22.055Z,101638.09
2022-08-20T17:45:03.128Z,101637.09
2022-08-20T17:47:34.510Z,101627.47
2022-08-20T17:50:13.193Z,101636.03
2022-08-20T17:52:53.042Z,101637.25
2022-08-20T17:55:20.194Z,101639.41
2022-08-20T17:57:49.799Z,101644.81
2022-08-20T18:00:23.627Z,101641.78
2022-08-20T18:02:58.514Z,101632.41
2022-08-20T18:05:25.562Z,101642.69
2022-08-20T18:08:02.810Z,101647.53
2022-08-20T18:10:33.122Z,101656.44
2022-08-20T18:13:19.541Z,101648.63
2022-08-20T18:15:58.351Z,101648.69
2022-08-20T18:18:50.931Z,101655.50
2022-08-20T18:21:50.032Z,101656.16
2022-08-20T18:24:24.522Z,101647.56
2022-08-20T18:27:00.910Z,101655.03
2022-08-20T18:29:34.352Z,101640.31
2022-08-20T18:32:21.310Z,101653.34
2022-08-20T18:34:48.616Z,101653.94
2022-08-20T18:37:14.971Z,101650.53
2022-08-20T18:39:44.612Z,101634.28
2022-08-20T18:42:28.949Z,101652.78
2022-08-20T18:44:57.153Z,101656.59
2022-08-20T18:47:26.134Z,101655.75
2022-08-20T18:50:30.167Z,101653.69
2022-08-20T18:53:14.865Z,101611.69
2022-08-20T18:55:44.871Z,101651.34
2022-08-20T18:58:28.589Z,101649.56
2022-08-20T19:00:55.071Z,101647.06
2022-08-20T19:03:26.389Z,101652.75
2022-08-20T19:06:37.645Z,101649.53
2022-08-20T19:09:37.881Z,101650.81
2022-08-20T19:12:52.323Z,101647.59
2022-08-20T19:15:22.676Z,101649.94
2022-08-20T19:18:03.248Z,101641.56
2022-08-20T19:20:33.740Z,101654.75
2022-08-20T19:23:06.589Z,101658.97
2022-08-20T19:25:36.829Z,101650.38
2022-08-20T19:28:14.022Z,101638.84
2022-08-20T19:30:42.330Z,101653.06
2022-08-20T19:33:10.596Z,101649.19
2022-08-20T19:35:37.688Z,101654.44
2022-08-20T19:38:07.224Z,101646.19
2022-08-20T19:40:39.997Z,101650.16
2022-08-20T19:43:13.786Z,101658.06
2022-08-20T19:45:54.283Z,101654.75
2022-08-20T19:48:27.258Z,101650.84
2022-08-20T19:51:32.443Z,101661.22
2022-08-20T19:53:58.905Z,101652.88
2022-08-20T19:56:27.606Z,101629.72
2022-08-20T19:59:07.151Z,101622.38
2022-08-20T20:01:34.963Z,101653.03
2022-08-20T20:04:05.129Z,101648.91
2022-08-20T20:06:36.282Z,101651.97
2022-08-20T20:09:13.637Z,101654.31
2022-08-20T20:11:49.656Z,101646.56
2022-08-20T20:14:18.414Z,101641.06
2022-08-20T20:16:45.834Z,101643.72
2022-08-20T20:19:26.430Z,101635.81
2022-08-20T20:22:19.248Z,101636.41
2022-08-20T20:24:57.562Z,101640.00
2022-08-20T20:27:26.279Z,101616.66
2022-08-20T20:30:07.816Z,101626.31
2022-08-20T20:32:34.359Z,101621.59
2022-08-20T20:35:04.129Z,101621.84
2022-08-20T20:37:49.127Z,101617.94
2022-08-20T20:40:25.340Z,101621.69
2022-08-20T20:43:03.772Z,101625.06
2022-08-20T20:45:40.138Z,101621.63
2022-08-20T20:48:26.788Z,101622.06
2022-08-20T20:50:59.481Z,101616.53
2022-08-20T20:53:50.878Z,101615.34
2022-08-20T20:56:55.803Z,101622.47
2022-08-20T20:59:22.169Z,101616.47
2022-08-20T21:01:50.532Z,101615.69
2022-08-20T21:04:27.123Z,101612.19
2022-08-20T21:06:56.556Z,101603.09
2022-08-20T21:09:24.637Z,101612.41
2022-08-20T21:11:51.508Z,101614.28
2022-08-20T21:14:18.654Z,101618.88
2022-08-20T21:16:45.690Z,101613.00
2022-08-20T21:19:13.057Z,101628.56
2022-08-20T21:21:39.966Z,101627.13
2022-08-20T21:24:07.215Z,101619.94
2022-08-20T21:26:34.348Z,101625.72
2022-08-20T21:29:00.852Z,101625.56
2022-08-20T21:31:32.691Z,101623.88
2022-08-20T21:33:59.214Z,101626.00
2022-08-20T21:36:26.130Z,101624.56
2022-08-20T21:38:52.988Z,101621.72
2022-08-20T21:41:19.623Z,101617.66
2022-08-20T21:43:56.979Z,101631.66
2022-08-20T21:46:24.889Z,101615.94
2022-08-20T21:48:51.626Z,101627.88
2022-08-20T21:51:18.029Z,101625.38
2022-08-20T21:53:45.852Z,101612.97
2022-08-20T21:56:12.322Z,101609.31
2022-08-20T21:58:39.405Z,101614.56
2022-08-20T22:01:06.830Z,101617.50
2022-08-20T22:03:36.890Z,101617.09
2022-08-20T22:06:07.013Z,101617.53
2022-08-20T22:08:33.984Z,101620.25
2022-08-20T22:11:00.805Z,101617.75
2022-08-20T22:13:31.722Z,101585.47
2022-08-20T22:16:03.970Z,101610.06
2022-08-20T22:18:30.579Z,101606.09
2022-08-20T22:20:57.381Z,101601.97
2022-08-20T22:23:24.434Z,101592.41
2022-08-20T22:25:51.117Z,101602.41
2022-08-20T22:28:18.765Z,101601.16
2022-08-20T22:30:45.587Z,101598.25
2022-08-20T22:33:16.458Z,101586.91
2022-08-20T22:35:46.994Z,101606.75
2022-08-20T22:38:13.736Z,101600.69
2022-08-20T22:40:40.848Z,101599.19
2022-08-20T22:43:07.655Z,101600.25
2022-08-20T22:45:35.233Z,101589.84
2022-08-20T22:48:02.531Z,101594.19
2022-08-20T22:50:28.954Z,101587.94
2022-08-20T22:52:55.425Z,101592.75
2022-08-20T22:55:21.894Z,101597.09
2022-08-20T22:57:48.363Z,101587.16
2022-08-20T23:00:16.943Z,101592.53
2022-08-20T23:02:47.116Z,101591.72
2022-08-20T23:05:17.079Z,101585.41
2022-08-20T23:07:43.617Z,101584.81
2022-08-20T23:10:10.107Z,101575.94
2022-08-20T23:12:36.901Z,101580.06
2022-08-20T23:15:04.883Z,101580.06
2022-08-20T23:17:31.375Z,101581.81
2022-08-20T23:19:57.793Z,101581.81
2022-08-20T23:22:24.223Z,101574.34
2022-08-20T23:24:50.723Z,101574.56
2022-08-20T23:27:19.464Z,101578.31
2022-08-20T23:29:46.818Z,101578.09
2022-08-20T23:32:13.714Z,101578.09
2022-08-20T23:34:40.224Z,101578.09
2022-08-20T23:37:07.089Z,101582.50
2022-08-20T23:39:34.387Z,101580.47
2022-08-20T23:42:01.655Z,101580.25
2022-08-20T23:44:28.585Z,101589.97
2022-08-20T23:46:58.432Z,101580.69
2022-08-20T23:49:26.243Z,101578.56
2022-08-20T23:51:52.727Z,101574.00
2022-08-20T23:54:19.205Z,101568.59
2022-08-20T23:56:45.755Z,101572.97
2022-08-20T23:59:12.174Z,101561.56
